Archival Weather

Southern Wisconsin Rgnl

Janesville, Wisconsin (KJVL)

Report from: Wednesday, December 6, 2023 10:45 AM CST
Current time: Sunday, February 25, 2024 2:44 PM CST

Current weather – Weather history – Daily summaries
Weather forecast

Present weatherMist
Temperature2.0°C (35.6°F)
Wind chill-2.2°C (28.0°F)
Dew point-3.0°C (26.6°F)
Winds 9 kts (4.6 m/s, 10.4 mph) West (260°)
Visibility6 mi. (9.7 km)
Clouds Scattered clouds 1,500 ft. (457 m)
Ceiling: Overcast 25,000 ft. (7,620 m)
Altimeter30.27 in.Hg (1025 mB)
Relative humidity69 %
Density altitude-1,906 ft. (-581 m)
Flight conditions Visual Meteorological Conditions
Raw dataKJVL 061645Z 26009KT 6SM BR SCT015 OVC250 02/M03 A3027
An error has occurred. This application may no longer respond until reloaded. Reload 🗙